createdAt,value
2018-10-05T00:00:31.473Z,7.00
2018-10-05T00:03:00.309Z,5.93
2018-10-05T00:05:29.136Z,5.93
2018-10-05T00:07:57.990Z,6.57
2018-10-05T00:10:26.785Z,5.57
2018-10-05T00:12:55.653Z,6.50
2018-10-05T00:15:24.673Z,6.77
2018-10-05T00:17:53.735Z,6.30
2018-10-05T00:20:22.707Z,6.40
2018-10-05T00:22:51.864Z,6.40
2018-10-05T00:25:20.871Z,7.53
2018-10-05T00:27:50.563Z,7.20
2018-10-05T00:30:19.429Z,7.20
2018-10-05T00:32:48.164Z,8.10
2018-10-05T00:35:17.286Z,7.63
2018-10-05T00:37:46.475Z,8.77
2018-10-05T00:40:15.373Z,7.37
2018-10-05T00:42:44.300Z,7.20
2018-10-05T00:45:13.078Z,7.10
2018-10-05T00:47:42.217Z,7.17
2018-10-05T00:50:11.100Z,7.93
2018-10-05T00:52:39.953Z,7.60
2018-10-05T00:55:08.759Z,6.97
2018-10-05T00:57:37.651Z,7.27
2018-10-05T01:00:06.541Z,7.07
2018-10-05T01:02:35.452Z,7.60
2018-10-05T01:05:04.245Z,7.27
2018-10-05T01:07:33.087Z,7.80
2018-10-05T01:10:01.842Z,6.63
2018-10-05T01:12:30.869Z,6.93
2018-10-05T01:14:59.599Z,7.30
2018-10-05T01:17:28.374Z,6.83
2018-10-05T01:19:57.201Z,6.97
2018-10-05T01:22:26.127Z,7.33
2018-10-05T01:24:55.080Z,7.53
2018-10-05T01:27:23.807Z,6.93
2018-10-05T01:29:53.458Z,6.83
2018-10-05T01:32:22.477Z,7.70
2018-10-05T01:34:51.606Z,7.63
2018-10-05T01:37:20.664Z,7.40
2018-10-05T01:39:49.433Z,6.93
2018-10-05T01:42:18.220Z,7.03
2018-10-05T01:44:47.193Z,7.60
2018-10-05T01:47:15.973Z,8.37
2018-10-05T01:49:44.762Z,8.00
2018-10-05T01:52:13.586Z,7.77
2018-10-05T01:54:42.418Z,8.67
2018-10-05T01:57:11.450Z,7.00
2018-10-05T01:59:40.298Z,7.30
2018-10-05T02:02:09.250Z,8.20
2018-10-05T02:04:38.040Z,7.60
2018-10-05T02:07:06.870Z,7.57
2018-10-05T02:09:35.634Z,8.10
2018-10-05T02:12:04.706Z,7.60
2018-10-05T02:14:33.457Z,7.33
2018-10-05T02:17:02.312Z,8.07
2018-10-05T02:19:31.110Z,7.30
2018-10-05T02:21:59.945Z,7.37
2018-10-05T02:24:28.913Z,7.67
2018-10-05T02:26:57.801Z,7.27
2018-10-05T02:29:26.585Z,8.47
2018-10-05T02:31:55.412Z,8.20
2018-10-05T02:34:24.215Z,7.67
2018-10-05T02:36:53.035Z,8.20
2018-10-05T02:39:21.900Z,8.47
2018-10-05T02:41:50.779Z,8.37
2018-10-05T02:44:19.475Z,8.23
2018-10-05T02:46:48.399Z,8.10
2018-10-05T02:49:17.231Z,8.73
2018-10-05T02:51:46.075Z,8.20
2018-10-05T02:54:14.828Z,8.27
2018-10-05T02:56:43.631Z,8.03
2018-10-05T02:59:12.420Z,8.17
2018-10-05T03:01:52.185Z,8.30
2018-10-05T03:04:20.931Z,8.87
2018-10-05T03:06:49.917Z,8.53
2018-10-05T03:09:18.931Z,9.10
2018-10-05T03:11:47.686Z,8.50
2018-10-05T03:14:16.529Z,8.70
2018-10-05T03:16:45.386Z,9.37
2018-10-05T03:19:14.190Z,9.87
2018-10-05T03:21:42.865Z,8.47
2018-10-05T03:24:11.655Z,9.50
2018-10-05T03:26:40.465Z,10.03
2018-10-05T03:29:09.257Z,9.47
2018-10-05T03:31:38.009Z,9.73
2018-10-05T03:34:06.924Z,9.80
2018-10-05T03:36:35.929Z,9.90
2018-10-05T03:39:06.335Z,9.17
2018-10-05T03:41:35.215Z,8.87
2018-10-05T03:44:04.019Z,9.57
2018-10-05T03:46:33.531Z,8.83
2018-10-05T03:49:02.794Z,8.80
2018-10-05T03:51:31.686Z,9.93
2018-10-05T03:54:00.492Z,9.50
2018-10-05T03:56:29.219Z,10.43
2018-10-05T03:58:58.044Z,10.23
2018-10-05T04:01:27.964Z,10.03
2018-10-05T04:03:56.862Z,10.30
2018-10-05T04:06:25.633Z,10.57
2018-10-05T04:08:54.552Z,9.87
2018-10-05T04:11:23.299Z,9.77
2018-10-05T04:13:52.384Z,9.83
2018-10-05T04:16:21.171Z,10.60
2018-10-05T04:18:49.982Z,10.57
2018-10-05T04:21:18.762Z,9.70
2018-10-05T04:23:47.505Z,10.13
2018-10-05T04:26:16.224Z,10.33
2018-10-05T04:28:44.999Z,11.03
2018-10-05T04:31:13.866Z,10.10
2018-10-05T04:33:42.670Z,10.73
2018-10-05T04:36:11.453Z,11.77
2018-10-05T04:38:40.303Z,11.20
2018-10-05T04:41:09.189Z,10.67
2018-10-05T04:43:37.961Z,11.77
2018-10-05T04:46:06.963Z,10.87
2018-10-05T04:48:35.749Z,10.97
2018-10-05T04:51:04.510Z,11.03
2018-10-05T04:53:33.326Z,10.00
2018-10-05T04:56:02.035Z,11.00
2018-10-05T04:58:30.953Z,11.00
2018-10-05T05:00:59.793Z,10.53
2018-10-05T05:03:35.644Z,10.93
2018-10-05T05:06:04.792Z,9.93
2018-10-05T05:08:33.656Z,10.10
2018-10-05T05:11:02.515Z,10.93
2018-10-05T05:13:31.356Z,10.23
2018-10-05T05:16:00.211Z,11.23
2018-10-05T05:18:28.912Z,11.43
2018-10-05T05:20:57.765Z,11.67
2018-10-05T05:23:26.611Z,10.53
2018-10-05T05:25:55.505Z,10.57
2018-10-05T05:28:24.499Z,11.07
2018-10-05T05:30:53.566Z,11.50
2018-10-05T05:33:22.326Z,10.80
2018-10-05T05:35:51.145Z,10.50
2018-10-05T05:38:20.107Z,10.93
2018-10-05T05:40:49.035Z,10.37
2018-10-05T05:43:18.022Z,10.57
2018-10-05T05:45:46.935Z,10.70
2018-10-05T05:48:15.777Z,10.63
2018-10-05T05:50:44.610Z,10.17
2018-10-05T05:53:13.498Z,9.47
2018-10-05T05:55:42.322Z,9.50
2018-10-05T05:58:11.297Z,9.57
2018-10-05T06:00:40.235Z,10.00
2018-10-05T06:03:09.088Z,10.60
2018-10-05T06:05:38.148Z,10.00
2018-10-05T06:08:07.429Z,10.80
2018-10-05T06:10:36.376Z,9.70
2018-10-05T06:13:05.416Z,10.90
2018-10-05T06:15:34.406Z,11.67
2018-10-05T06:18:03.274Z,9.97
2018-10-05T06:20:32.245Z,10.73
2018-10-05T06:23:01.215Z,10.03
2018-10-05T06:25:30.337Z,10.27
2018-10-05T06:27:59.244Z,9.33
2018-10-05T06:30:28.100Z,10.17
2018-10-05T06:32:56.978Z,10.03
2018-10-05T06:35:25.961Z,9.47
2018-10-05T06:37:54.921Z,10.50
2018-10-05T06:40:23.935Z,10.17
2018-10-05T06:42:52.880Z,9.90
2018-10-05T06:45:22.003Z,10.63
2018-10-05T06:47:50.930Z,10.23
2018-10-05T06:50:19.810Z,10.10
2018-10-05T06:52:48.996Z,10.33
2018-10-05T06:55:18.041Z,9.87
2018-10-05T06:57:47.350Z,9.77
2018-10-05T07:00:16.692Z,9.50
2018-10-05T07:02:45.519Z,9.90
2018-10-05T07:05:14.374Z,9.80
2018-10-05T07:07:43.341Z,9.87
2018-10-05T07:10:13.095Z,8.80
2018-10-05T07:12:42.153Z,8.47
2018-10-05T07:15:11.155Z,7.70
2018-10-05T07:17:40.100Z,8.57
2018-10-05T07:20:15.814Z,7.73
2018-10-05T07:22:44.828Z,8.00
2018-10-05T07:25:14.016Z,7.57
2018-10-05T07:27:43.132Z,7.63
2018-10-05T07:30:12.278Z,7.77
2018-10-05T07:32:41.251Z,7.43
2018-10-05T07:35:10.402Z,6.77
2018-10-05T07:37:39.495Z,7.10
2018-10-05T07:40:08.437Z,6.57
2018-10-05T07:42:37.317Z,6.80
2018-10-05T07:45:06.237Z,6.10
2018-10-05T07:47:35.165Z,6.07
2018-10-05T07:50:04.391Z,6.47
2018-10-05T07:52:33.336Z,6.10
2018-10-05T07:55:02.325Z,6.00
2018-10-05T07:57:32.135Z,6.27
2018-10-05T08:00:01.325Z,5.83
2018-10-05T08:02:30.375Z,5.90
2018-10-05T08:04:59.424Z,5.60
2018-10-05T08:07:28.322Z,5.40
2018-10-05T08:09:57.658Z,5.50
2018-10-05T08:12:26.971Z,5.63
2018-10-05T08:14:55.995Z,5.73
2018-10-05T08:17:25.180Z,5.00
2018-10-05T08:19:54.079Z,5.00
2018-10-05T08:22:23.115Z,5.47
2018-10-05T08:24:51.979Z,5.40
2018-10-05T08:27:20.957Z,5.77
2018-10-05T08:29:49.948Z,5.57
2018-10-05T08:32:19.009Z,4.70
2018-10-05T08:34:48.151Z,5.23
2018-10-05T08:37:17.130Z,5.43
2018-10-05T08:39:46.194Z,5.10
2018-10-05T08:42:15.206Z,4.30
2018-10-05T08:44:44.276Z,5.00
2018-10-05T08:47:13.279Z,5.20
2018-10-05T08:49:42.284Z,4.47
2018-10-05T08:52:11.490Z,4.70
2018-10-05T08:54:40.377Z,4.77
2018-10-05T08:57:09.406Z,4.80
2018-10-05T08:59:38.664Z,4.50
2018-10-05T09:02:07.794Z,4.40
2018-10-05T09:04:36.765Z,4.70
2018-10-05T09:07:05.967Z,4.10
2018-10-05T09:09:34.787Z,4.20
2018-10-05T09:12:03.966Z,4.47
2018-10-05T09:14:32.969Z,4.27
2018-10-05T09:17:01.986Z,4.73
2018-10-05T09:19:31.096Z,4.37
2018-10-05T09:22:00.321Z,5.27
2018-10-05T09:24:29.331Z,4.20
2018-10-05T09:26:58.310Z,4.50
2018-10-05T09:29:27.184Z,4.13
2018-10-05T09:31:56.299Z,4.50
2018-10-05T09:34:25.412Z,4.50
2018-10-05T09:36:54.809Z,3.90
2018-10-05T09:39:23.818Z,3.90
2018-10-05T09:41:53.044Z,4.63
2018-10-05T09:44:22.061Z,4.10
2018-10-05T09:46:51.019Z,3.70
2018-10-05T09:49:20.046Z,4.17
2018-10-05T09:51:49.406Z,3.77
2018-10-05T09:54:18.398Z,3.70
2018-10-05T09:56:47.716Z,3.80
2018-10-05T09:59:16.878Z,4.27
2018-10-05T10:01:51.046Z,3.97
2018-10-05T10:04:20.406Z,4.40
2018-10-05T10:06:49.395Z,4.20
2018-10-05T10:09:18.522Z,3.70
2018-10-05T10:11:47.747Z,4.60
2018-10-05T10:14:16.675Z,4.40
2018-10-05T10:16:45.567Z,4.40
2018-10-05T10:19:14.573Z,4.23
2018-10-05T10:21:43.434Z,4.87
2018-10-05T10:24:17.511Z,4.10
2018-10-05T10:26:46.419Z,4.60
2018-10-05T10:29:16.498Z,4.30
2018-10-05T10:31:45.649Z,4.03
2018-10-05T10:34:14.806Z,4.93
2018-10-05T10:36:44.701Z,5.30
2018-10-05T10:39:13.529Z,4.50
2018-10-05T10:41:42.523Z,4.53
2018-10-05T10:44:11.599Z,4.60
2018-10-05T10:46:40.494Z,4.40
2018-10-05T10:49:09.414Z,4.40
2018-10-05T10:51:38.315Z,4.43
2018-10-05T10:54:07.355Z,4.60
2018-10-05T10:56:36.145Z,4.37
2018-10-05T10:59:05.043Z,4.20
2018-10-05T11:01:33.885Z,4.73
2018-10-05T11:04:02.970Z,5.00
2018-10-05T11:06:31.965Z,4.70
2018-10-05T11:09:02.580Z,4.80
2018-10-05T11:11:32.241Z,4.17
2018-10-05T11:14:01.325Z,4.80
2018-10-05T11:16:33.680Z,4.93
2018-10-05T11:19:03.079Z,4.33
2018-10-05T11:21:32.788Z,3.83
2018-10-05T11:24:01.639Z,4.60
2018-10-05T11:26:30.405Z,4.00
2018-10-05T11:29:00.195Z,4.30
2018-10-05T11:31:29.328Z,4.10
2018-10-05T11:33:58.142Z,4.07
2018-10-05T11:36:27.228Z,4.47
2018-10-05T11:38:56.009Z,4.27
2018-10-05T11:41:25.118Z,4.10
2018-10-05T11:43:53.946Z,4.83
2018-10-05T11:46:23.187Z,4.00
2018-10-05T11:48:52.592Z,4.03
2018-10-05T11:51:21.496Z,4.10
2018-10-05T11:53:50.633Z,4.37
2018-10-05T11:56:19.432Z,4.20
2018-10-05T11:58:48.564Z,4.10
2018-10-05T12:01:17.573Z,3.87
2018-10-05T12:03:46.836Z,4.53
2018-10-05T12:06:15.711Z,4.15
2018-10-05T12:08:44.477Z,4.08
2018-10-05T12:11:13.504Z,3.80
2018-10-05T12:16:36.495Z,4.00
2018-10-05T12:19:07.559Z,4.33
2018-10-05T12:21:38.692Z,3.85
2018-10-05T12:24:10.016Z,3.87
2018-10-05T12:26:41.359Z,4.22
2018-10-05T12:29:13.993Z,4.30
2018-10-05T12:31:45.784Z,4.03
2018-10-05T12:34:16.599Z,4.15
2018-10-05T12:36:48.228Z,4.20
2018-10-05T12:39:21.624Z,4.03
2018-10-05T12:41:55.081Z,3.58
2018-10-05T12:44:25.935Z,4.10
2018-10-05T12:46:56.689Z,4.03
2018-10-05T12:49:28.588Z,3.83
2018-10-05T12:51:59.878Z,3.65
2018-10-05T12:54:31.286Z,3.55
2018-10-05T12:57:02.727Z,3.50
2018-10-05T12:59:36.243Z,3.77
2018-10-05T13:02:08.425Z,4.25
2018-10-05T13:04:40.452Z,4.20
2018-10-05T13:07:11.854Z,3.55
2018-10-05T13:09:43.433Z,3.80
2018-10-05T13:12:14.557Z,4.25
2018-10-05T13:14:48.591Z,3.55
2018-10-05T13:17:19.541Z,4.42
2018-10-05T13:19:51.187Z,4.17
2018-10-05T13:22:22.151Z,3.45
2018-10-05T13:24:54.159Z,3.90
2018-10-05T13:27:25.285Z,3.87
2018-10-05T13:29:56.791Z,3.80
2018-10-05T13:32:29.487Z,3.70
2018-10-05T13:35:01.079Z,3.27
2018-10-05T13:37:32.424Z,3.30
2018-10-05T13:40:05.974Z,3.98
2018-10-05T13:42:38.216Z,4.03
2018-10-05T13:45:10.082Z,4.95
2018-10-05T13:47:43.076Z,3.90
2018-10-05T13:50:23.431Z,3.72
2018-10-05T13:52:54.463Z,3.35
2018-10-05T13:55:25.393Z,3.80
2018-10-05T13:58:02.613Z,4.12
2018-10-05T14:00:35.638Z,4.03
2018-10-05T14:03:05.929Z,4.03
2018-10-05T14:05:36.014Z,3.75
2018-10-05T14:08:05.019Z,4.00
2018-10-05T14:10:34.330Z,3.70
2018-10-05T14:13:03.421Z,3.87
2018-10-05T14:15:34.596Z,3.40
2018-10-05T14:18:06.493Z,3.90
2018-10-05T14:20:37.811Z,3.22
2018-10-05T14:23:09.551Z,3.55
2018-10-05T14:25:42.437Z,3.77
2018-10-05T14:28:14.240Z,4.62
2018-10-05T14:30:45.860Z,4.03
2018-10-05T14:33:18.522Z,3.80
2018-10-05T14:35:49.384Z,3.40
2018-10-05T14:38:20.633Z,3.98
2018-10-05T14:40:51.533Z,4.10
2018-10-05T14:43:23.201Z,3.90
2018-10-05T14:45:55.697Z,3.50
2018-10-05T14:48:27.378Z,3.52
2018-10-05T14:51:00.713Z,3.58
2018-10-05T14:53:33.282Z,2.87
2018-10-05T14:56:02.799Z,3.30
2018-10-05T14:58:32.040Z,3.13
2018-10-05T15:01:01.201Z,3.10
2018-10-05T15:03:30.264Z,3.27
2018-10-05T15:05:59.514Z,3.07
2018-10-05T15:08:28.786Z,3.27
2018-10-05T15:10:57.849Z,3.00
2018-10-05T15:13:26.994Z,3.20
2018-10-05T15:15:56.213Z,3.00
2018-10-05T15:18:25.288Z,3.00
2018-10-05T15:20:54.241Z,3.40
2018-10-05T15:23:23.366Z,2.90
2018-10-05T15:25:52.344Z,3.10
2018-10-05T15:28:21.491Z,3.50
2018-10-05T15:30:50.592Z,3.07
2018-10-05T15:33:19.897Z,3.10
2018-10-05T15:35:49.000Z,3.20
2018-10-05T15:38:17.974Z,3.30
2018-10-05T15:40:47.180Z,2.87
2018-10-05T15:43:16.281Z,2.87
2018-10-05T15:45:45.731Z,3.30
2018-10-05T15:48:14.735Z,3.13
2018-10-05T15:50:43.856Z,3.33
2018-10-05T15:53:12.835Z,3.30
2018-10-05T15:55:42.007Z,2.63
2018-10-05T15:58:10.953Z,3.40
2018-10-05T16:00:39.994Z,3.33
2018-10-05T16:03:09.114Z,3.40
2018-10-05T16:05:38.309Z,3.40
2018-10-05T16:08:07.370Z,3.50
2018-10-05T16:10:36.560Z,3.17
2018-10-05T16:13:05.537Z,3.20
2018-10-05T16:15:34.743Z,3.07
2018-10-05T16:18:03.864Z,3.13
2018-10-05T16:20:33.129Z,3.03
2018-10-05T16:23:02.219Z,3.33
2018-10-05T16:25:31.148Z,3.17
2018-10-05T16:28:00.152Z,2.90
2018-10-05T16:30:29.044Z,3.63
2018-10-05T16:32:58.013Z,3.37
2018-10-05T16:35:27.047Z,3.33
2018-10-05T16:37:56.319Z,3.70
2018-10-05T16:40:25.224Z,3.87
2018-10-05T16:42:54.358Z,3.03
2018-10-05T16:45:23.281Z,3.47
2018-10-05T16:47:52.406Z,4.20
2018-10-05T16:50:21.382Z,3.10
2018-10-05T16:52:50.419Z,3.50
2018-10-05T16:55:19.376Z,3.13
2018-10-05T16:57:48.718Z,3.23
2018-10-05T17:00:18.463Z,3.20
2018-10-05T17:02:47.758Z,3.87
2018-10-05T17:05:16.631Z,3.70
2018-10-05T17:07:45.540Z,3.60
2018-10-05T17:10:14.535Z,3.37
2018-10-05T17:12:43.498Z,3.60
2018-10-05T17:15:12.421Z,4.07
2018-10-05T17:17:41.510Z,3.13
2018-10-05T17:20:10.944Z,3.80
2018-10-05T17:22:40.091Z,3.37
2018-10-05T17:25:09.924Z,3.43
2018-10-05T17:27:39.178Z,3.63
2018-10-05T17:30:08.084Z,3.43
2018-10-05T17:32:37.725Z,3.67
2018-10-05T17:35:06.736Z,4.47
2018-10-05T17:37:35.726Z,3.80
2018-10-05T17:40:05.301Z,4.40
2018-10-05T17:42:34.357Z,4.07
2018-10-05T17:45:03.282Z,4.77
2018-10-05T17:47:32.198Z,3.70
2018-10-05T17:50:01.434Z,4.57
2018-10-05T17:52:30.374Z,3.97
2018-10-05T17:54:59.410Z,4.23
2018-10-05T17:57:28.439Z,3.73
2018-10-05T17:59:57.631Z,4.13
2018-10-05T18:02:26.554Z,3.80
2018-10-05T18:04:55.806Z,4.27
2018-10-05T18:07:25.302Z,4.37
2018-10-05T18:09:54.197Z,4.10
2018-10-05T18:12:23.194Z,4.30
2018-10-05T18:14:52.422Z,4.77
2018-10-05T18:17:21.479Z,4.50
2018-10-05T18:19:50.505Z,4.60
2018-10-05T18:22:19.520Z,4.47
2018-10-05T18:24:48.700Z,4.37
2018-10-05T18:27:17.679Z,4.57
2018-10-05T18:29:46.879Z,4.40
2018-10-05T18:32:15.960Z,5.07
2018-10-05T18:34:44.994Z,4.50
2018-10-05T18:37:13.981Z,4.90
2018-10-05T18:39:43.037Z,4.77
2018-10-05T18:42:12.167Z,4.83
2018-10-05T18:44:41.406Z,5.83
2018-10-05T18:47:10.402Z,5.43
2018-10-05T18:49:39.589Z,5.17
2018-10-05T18:52:09.356Z,5.27
2018-10-05T18:54:38.277Z,5.70
2018-10-05T18:57:16.607Z,5.50
2018-10-05T18:59:45.872Z,5.67
2018-10-05T19:02:15.820Z,6.40
2018-10-05T19:04:45.474Z,5.37
2018-10-05T19:07:14.567Z,5.37
2018-10-05T19:09:43.646Z,5.97
2018-10-05T19:12:12.660Z,5.87
2018-10-05T19:14:42.492Z,6.20
2018-10-05T19:17:11.510Z,5.87
2018-10-05T19:19:40.490Z,5.93
2018-10-05T19:22:09.467Z,6.50
2018-10-05T19:24:38.641Z,6.00
2018-10-05T19:27:07.621Z,5.80
2018-10-05T19:29:36.697Z,5.43
2018-10-05T19:32:05.875Z,6.37
2018-10-05T19:34:34.809Z,5.97
2018-10-05T19:37:03.758Z,5.70
2018-10-05T19:39:32.696Z,6.40
2018-10-05T19:42:01.911Z,5.90
2018-10-05T19:44:31.715Z,6.00
2018-10-05T19:47:00.863Z,6.30
2018-10-05T19:49:29.778Z,6.10
2018-10-05T19:51:58.637Z,6.33
2018-10-05T19:54:27.686Z,6.23
2018-10-05T19:56:56.591Z,6.53
2018-10-05T19:59:26.161Z,6.13
2018-10-05T20:01:55.311Z,6.17
2018-10-05T20:04:24.365Z,6.37
2018-10-05T20:06:53.305Z,6.80
2018-10-05T20:09:22.219Z,6.47
2018-10-05T20:11:51.173Z,6.80
2018-10-05T20:14:20.148Z,6.90
2018-10-05T20:16:49.857Z,6.23
2018-10-05T20:19:18.753Z,6.90
2018-10-05T20:21:47.952Z,7.00
2018-10-05T20:24:16.912Z,6.80
2018-10-05T20:26:45.813Z,7.10
2018-10-05T20:29:14.995Z,7.13
2018-10-05T20:31:44.813Z,6.90
2018-10-05T20:34:14.910Z,6.20
2018-10-05T20:36:43.993Z,7.20
2018-10-05T20:39:12.848Z,7.07
2018-10-05T20:41:41.726Z,7.43
2018-10-05T20:44:10.696Z,7.20
2018-10-05T20:46:39.619Z,8.00
2018-10-05T20:49:08.822Z,6.90
2018-10-05T20:51:37.871Z,6.93
2018-10-05T20:54:06.776Z,7.47
2018-10-05T20:56:35.838Z,6.97
2018-10-05T20:59:04.778Z,7.90
2018-10-05T21:01:33.813Z,6.97
2018-10-05T21:04:02.835Z,8.23
2018-10-05T21:06:31.801Z,6.90
2018-10-05T21:09:00.760Z,7.50
2018-10-05T21:11:29.741Z,6.43
2018-10-05T21:13:58.830Z,7.60
2018-10-05T21:16:27.819Z,7.27
2018-10-05T21:18:56.710Z,7.60
2018-10-05T21:21:25.629Z,7.20
2018-10-05T21:23:54.578Z,7.33
2018-10-05T21:26:23.710Z,7.17
2018-10-05T21:28:52.975Z,7.13
2018-10-05T21:31:21.940Z,7.53
2018-10-05T21:33:50.908Z,7.07
2018-10-05T21:36:19.916Z,8.53
2018-10-05T21:38:48.891Z,7.60
2018-10-05T21:41:17.862Z,7.50
2018-10-05T21:43:47.885Z,7.60
2018-10-05T21:46:16.791Z,7.20
2018-10-05T21:48:45.657Z,7.37
2018-10-05T21:51:14.585Z,7.33
2018-10-05T21:53:43.489Z,8.27
2018-10-05T21:56:12.417Z,8.00
2018-10-05T21:58:41.463Z,7.77
2018-10-05T22:01:10.440Z,8.87
2018-10-05T22:03:39.896Z,7.63
2018-10-05T22:06:08.981Z,8.33
2018-10-05T22:08:38.050Z,7.90
2018-10-05T22:11:07.190Z,7.43
2018-10-05T22:13:36.079Z,7.90
2018-10-05T22:16:05.760Z,7.70
2018-10-05T22:18:34.688Z,8.03
2018-10-05T22:21:03.748Z,7.97
2018-10-05T22:23:32.786Z,7.80
2018-10-05T22:26:01.725Z,8.13
2018-10-05T22:28:30.689Z,7.27
2018-10-05T22:30:59.663Z,7.90
2018-10-05T22:33:28.727Z,8.70
2018-10-05T22:35:57.974Z,8.53
2018-10-05T22:38:26.878Z,7.67
2018-10-05T22:40:56.067Z,7.77
2018-10-05T22:43:26.030Z,8.57
2018-10-05T22:45:55.076Z,8.27
2018-10-05T22:48:23.972Z,8.50
2018-10-05T22:50:52.934Z,8.57
2018-10-05T22:53:21.822Z,9.17
2018-10-05T22:55:50.697Z,8.67
2018-10-05T22:58:19.640Z,8.93
2018-10-05T23:00:48.871Z,9.30
2018-10-05T23:03:17.828Z,8.03
2018-10-05T23:05:46.830Z,9.43
2018-10-05T23:08:15.758Z,10.20
2018-10-05T23:10:44.730Z,9.63
2018-10-05T23:13:14.434Z,9.87
2018-10-05T23:15:43.565Z,8.93
2018-10-05T23:18:12.578Z,9.37
2018-10-05T23:20:41.736Z,9.30
2018-10-05T23:23:11.089Z,10.13
2018-10-05T23:25:40.028Z,8.67
2018-10-05T23:28:08.907Z,9.93
2018-10-05T23:30:37.878Z,8.67
2018-10-05T23:33:07.236Z,9.03
2018-10-05T23:35:36.317Z,9.37
2018-10-05T23:38:05.252Z,9.27
2018-10-05T23:40:34.189Z,9.67
2018-10-05T23:43:03.159Z,9.23
2018-10-05T23:45:32.078Z,10.57
2018-10-05T23:48:01.092Z,10.33
2018-10-05T23:50:30.021Z,10.87
2018-10-05T23:52:58.920Z,10.47
2018-10-05T23:55:27.975Z,10.60
2018-10-05T23:57:56.946Z,11.27
